sensor_id;sensor_type;location;lat;lon;timestamp;P1;durP1;ratioP1;P2;durP2;ratioP2
75071;SDS011;63651;55.728;38.022;2022-10-23T00:02:52;4.40;;;3.60;;
75071;SDS011;63651;55.728;38.022;2022-10-23T00:07:54;5.00;;;3.83;;
75071;SDS011;63651;55.728;38.022;2022-10-23T00:12:55;5.38;;;3.47;;
75071;SDS011;63651;55.728;38.022;2022-10-23T00:17:56;6.60;;;3.70;;
75071;SDS011;63651;55.728;38.022;2022-10-23T00:22:57;5.80;;;3.47;;
75071;SDS011;63651;55.728;38.022;2022-10-23T00:27:57;5.00;;;3.65;;
75071;SDS011;63651;55.728;38.022;2022-10-23T00:32:58;5.18;;;3.83;;
75071;SDS011;63651;55.728;38.022;2022-10-23T00:37:59;4.82;;;3.22;;
75071;SDS011;63651;55.728;38.022;2022-10-23T00:43:00;5.60;;;3.55;;
75071;SDS011;63651;55.728;38.022;2022-10-23T00:48:00;5.43;;;4.00;;
75071;SDS011;63651;55.728;38.022;2022-10-23T00:53:02;5.90;;;4.00;;
75071;SDS011;63651;55.728;38.022;2022-10-23T00:58:03;5.57;;;3.80;;
75071;SDS011;63651;55.728;38.022;2022-10-23T01:03:04;5.95;;;4.18;;
75071;SDS011;63651;55.728;38.022;2022-10-23T01:08:06;5.88;;;4.10;;
75071;SDS011;63651;55.728;38.022;2022-10-23T01:13:16;6.72;;;3.90;;
75071;SDS011;63651;55.728;38.022;2022-10-23T01:18:38;6.10;;;4.20;;
75071;SDS011;63651;55.728;38.022;2022-10-23T01:23:52;8.75;;;4.13;;
75071;SDS011;63651;55.728;38.022;2022-10-23T01:28:58;5.75;;;3.83;;
75071;SDS011;63651;55.728;38.022;2022-10-23T01:34:08;5.75;;;4.45;;
75071;SDS011;63651;55.728;38.022;2022-10-23T01:39:14;8.77;;;4.38;;
75071;SDS011;63651;55.728;38.022;2022-10-23T01:44:26;6.88;;;4.10;;
75071;SDS011;63651;55.728;38.022;2022-10-23T01:49:28;6.28;;;4.10;;
75071;SDS011;63651;55.728;38.022;2022-10-23T01:54:31;7.68;;;4.75;;
75071;SDS011;63651;55.728;38.022;2022-10-23T01:59:34;7.22;;;4.57;;
75071;SDS011;63651;55.728;38.022;2022-10-23T02:04:40;6.88;;;4.60;;
75071;SDS011;63651;55.728;38.022;2022-10-23T02:09:41;6.18;;;3.88;;
75071;SDS011;63651;55.728;38.022;2022-10-23T02:14:52;7.15;;;4.30;;
75071;SDS011;63651;55.728;38.022;2022-10-23T02:19:57;6.25;;;4.25;;
75071;SDS011;63651;55.728;38.022;2022-10-23T02:25:02;6.63;;;4.65;;
75071;SDS011;63651;55.728;38.022;2022-10-23T02:30:07;7.55;;;4.75;;
75071;SDS011;63651;55.728;38.022;2022-10-23T02:35:09;5.78;;;4.45;;
75071;SDS011;63651;55.728;38.022;2022-10-23T02:40:10;6.30;;;4.40;;
75071;SDS011;63651;55.728;38.022;2022-10-23T02:45:13;5.28;;;4.40;;
75071;SDS011;63651;55.728;38.022;2022-10-23T02:50:35;6.00;;;4.50;;
75071;SDS011;63651;55.728;38.022;2022-10-23T03:00:38;6.20;;;5.15;;
75071;SDS011;63651;55.728;38.022;2022-10-23T03:05:42;6.15;;;4.80;;
75071;SDS011;63651;55.728;38.022;2022-10-23T03:10:44;7.30;;;4.95;;
75071;SDS011;63651;55.728;38.022;2022-10-23T03:15:45;6.80;;;4.85;;
75071;SDS011;63651;55.728;38.022;2022-10-23T03:20:45;8.10;;;4.95;;
75071;SDS011;63651;55.728;38.022;2022-10-23T03:25:46;7.85;;;4.68;;
75071;SDS011;63651;55.728;38.022;2022-10-23T03:30:47;8.40;;;4.90;;
75071;SDS011;63651;55.728;38.022;2022-10-23T03:35:48;10.68;;;5.50;;
75071;SDS011;63651;55.728;38.022;2022-10-23T03:40:49;7.85;;;5.40;;
75071;SDS011;63651;55.728;38.022;2022-10-23T03:45:49;9.30;;;5.10;;
75071;SDS011;63651;55.728;38.022;2022-10-23T03:50:51;6.97;;;5.15;;
75071;SDS011;63651;55.728;38.022;2022-10-23T03:55:52;8.02;;;5.60;;
75071;SDS011;63651;55.728;38.022;2022-10-23T04:00:52;8.13;;;4.95;;
75071;SDS011;63651;55.728;38.022;2022-10-23T04:05:53;8.63;;;5.72;;
75071;SDS011;63651;55.728;38.022;2022-10-23T04:10:54;9.27;;;5.07;;
75071;SDS011;63651;55.728;38.022;2022-10-23T04:15:54;9.85;;;5.88;;
75071;SDS011;63651;55.728;38.022;2022-10-23T04:20:55;6.80;;;5.15;;
75071;SDS011;63651;55.728;38.022;2022-10-23T04:25:56;8.60;;;5.55;;
75071;SDS011;63651;55.728;38.022;2022-10-23T04:30:57;9.38;;;5.47;;
75071;SDS011;63651;55.728;38.022;2022-10-23T04:35:58;7.85;;;5.95;;
75071;SDS011;63651;55.728;38.022;2022-10-23T04:41:01;9.50;;;5.68;;
75071;SDS011;63651;55.728;38.022;2022-10-23T04:46:02;9.05;;;5.85;;
75071;SDS011;63651;55.728;38.022;2022-10-23T04:51:05;7.00;;;5.95;;
75071;SDS011;63651;55.728;38.022;2022-10-23T04:56:06;7.75;;;5.18;;
75071;SDS011;63651;55.728;38.022;2022-10-23T05:01:08;8.73;;;5.07;;
75071;SDS011;63651;55.728;38.022;2022-10-23T05:06:09;9.73;;;5.32;;
75071;SDS011;63651;55.728;38.022;2022-10-23T05:11:10;8.05;;;5.82;;
75071;SDS011;63651;55.728;38.022;2022-10-23T05:16:11;9.30;;;6.20;;
75071;SDS011;63651;55.728;38.022;2022-10-23T05:21:20;9.70;;;6.32;;
75071;SDS011;63651;55.728;38.022;2022-10-23T05:26:22;9.60;;;5.80;;
75071;SDS011;63651;55.728;38.022;2022-10-23T05:31:23;9.15;;;5.60;;
75071;SDS011;63651;55.728;38.022;2022-10-23T05:36:24;10.55;;;5.60;;
75071;SDS011;63651;55.728;38.022;2022-10-23T05:41:26;8.80;;;5.95;;
75071;SDS011;63651;55.728;38.022;2022-10-23T05:46:26;9.35;;;6.13;;
75071;SDS011;63651;55.728;38.022;2022-10-23T05:51:28;11.60;;;6.65;;
75071;SDS011;63651;55.728;38.022;2022-10-23T05:56:29;10.00;;;5.80;;
75071;SDS011;63651;55.728;38.022;2022-10-23T06:01:29;10.90;;;5.72;;
75071;SDS011;63651;55.728;38.022;2022-10-23T06:06:30;15.68;;;6.35;;
75071;SDS011;63651;55.728;38.022;2022-10-23T06:11:31;14.65;;;6.38;;
75071;SDS011;63651;55.728;38.022;2022-10-23T06:16:32;17.77;;;6.65;;
75071;SDS011;63651;55.728;38.022;2022-10-23T06:21:35;12.70;;;6.28;;
75071;SDS011;63651;55.728;38.022;2022-10-23T06:26:35;15.90;;;5.80;;
75071;SDS011;63651;55.728;38.022;2022-10-23T06:31:36;13.88;;;5.95;;
75071;SDS011;63651;55.728;38.022;2022-10-23T06:36:37;11.93;;;5.82;;
75071;SDS011;63651;55.728;38.022;2022-10-23T06:41:38;12.75;;;5.10;;
75071;SDS011;63651;55.728;38.022;2022-10-23T06:46:41;11.48;;;5.85;;
75071;SDS011;63651;55.728;38.022;2022-10-23T06:51:42;10.60;;;5.20;;
75071;SDS011;63651;55.728;38.022;2022-10-23T06:56:42;14.18;;;5.00;;
75071;SDS011;63651;55.728;38.022;2022-10-23T07:01:43;10.80;;;4.55;;
75071;SDS011;63651;55.728;38.022;2022-10-23T07:06:44;8.70;;;5.18;;
75071;SDS011;63651;55.728;38.022;2022-10-23T07:11:45;10.88;;;5.30;;
75071;SDS011;63651;55.728;38.022;2022-10-23T07:16:45;7.63;;;5.00;;
75071;SDS011;63651;55.728;38.022;2022-10-23T07:21:46;9.02;;;4.70;;
75071;SDS011;63651;55.728;38.022;2022-10-23T07:26:47;10.73;;;5.75;;
75071;SDS011;63651;55.728;38.022;2022-10-23T07:31:48;8.43;;;5.35;;
75071;SDS011;63651;55.728;38.022;2022-10-23T07:36:49;9.32;;;4.75;;
75071;SDS011;63651;55.728;38.022;2022-10-23T07:41:50;8.95;;;4.95;;
75071;SDS011;63651;55.728;38.022;2022-10-23T07:46:51;8.70;;;4.95;;
75071;SDS011;63651;55.728;38.022;2022-10-23T07:51:51;7.28;;;5.50;;
75071;SDS011;63651;55.728;38.022;2022-10-23T07:56:53;8.45;;;5.43;;
75071;SDS011;63651;55.728;38.022;2022-10-23T08:01:53;8.68;;;5.20;;
75071;SDS011;63651;55.728;38.022;2022-10-23T08:06:55;8.02;;;5.57;;
75071;SDS011;63651;55.728;38.022;2022-10-23T08:11:56;8.30;;;5.03;;
75071;SDS011;63651;55.728;38.022;2022-10-23T08:16:57;7.80;;;5.30;;
75071;SDS011;63651;55.728;38.022;2022-10-23T08:21:57;7.22;;;4.35;;
75071;SDS011;63651;55.728;38.022;2022-10-23T08:26:58;5.95;;;4.53;;
75071;SDS011;63651;55.728;38.022;2022-10-23T08:31:59;8.82;;;5.97;;
75071;SDS011;63651;55.728;38.022;2022-10-23T08:36:59;8.70;;;6.00;;
75071;SDS011;63651;55.728;38.022;2022-10-23T08:42:00;8.32;;;5.78;;
75071;SDS011;63651;55.728;38.022;2022-10-23T08:47:05;8.40;;;5.57;;
75071;SDS011;63651;55.728;38.022;2022-10-23T08:57:27;7.25;;;5.20;;
75071;SDS011;63651;55.728;38.022;2022-10-23T09:02:47;7.80;;;4.95;;
75071;SDS011;63651;55.728;38.022;2022-10-23T09:18:14;8.48;;;5.22;;
75071;SDS011;63651;55.728;38.022;2022-10-23T09:23:16;7.43;;;4.63;;
75071;SDS011;63651;55.728;38.022;2022-10-23T09:28:22;8.18;;;5.03;;
75071;SDS011;63651;55.728;38.022;2022-10-23T09:33:24;6.50;;;4.97;;
75071;SDS011;63651;55.728;38.022;2022-10-23T09:38:35;7.88;;;4.82;;
75071;SDS011;63651;55.728;38.022;2022-10-23T09:43:36;7.15;;;5.30;;
75071;SDS011;63651;55.728;38.022;2022-10-23T09:48:37;5.78;;;4.80;;
75071;SDS011;63651;55.728;38.022;2022-10-23T09:53:39;7.72;;;5.15;;
75071;SDS011;63651;55.728;38.022;2022-10-23T09:58:53;7.15;;;5.65;;
75071;SDS011;63651;55.728;38.022;2022-10-23T10:03:55;8.10;;;5.15;;
75071;SDS011;63651;55.728;38.022;2022-10-23T10:08:57;7.53;;;5.68;;
75071;SDS011;63651;55.728;38.022;2022-10-23T10:24:20;10.63;;;5.88;;
75071;SDS011;63651;55.728;38.022;2022-10-23T10:34:45;10.13;;;5.93;;
75071;SDS011;63651;55.728;38.022;2022-10-23T10:50:21;8.02;;;5.70;;
75071;SDS011;63651;55.728;38.022;2022-10-23T10:55:31;8.27;;;5.57;;
75071;SDS011;63651;55.728;38.022;2022-10-23T11:00:33;8.57;;;5.15;;
75071;SDS011;63651;55.728;38.022;2022-10-23T11:05:40;9.82;;;5.95;;
75071;SDS011;63651;55.728;38.022;2022-10-23T11:10:43;8.70;;;4.93;;
75071;SDS011;63651;55.728;38.022;2022-10-23T11:15:44;8.23;;;5.55;;
75071;SDS011;63651;55.728;38.022;2022-10-23T11:20:59;9.60;;;5.68;;
75071;SDS011;63651;55.728;38.022;2022-10-23T11:26:12;9.63;;;5.95;;
75071;SDS011;63651;55.728;38.022;2022-10-23T11:36:40;8.45;;;5.25;;
75071;SDS011;63651;55.728;38.022;2022-10-23T11:41:49;8.82;;;6.03;;
75071;SDS011;63651;55.728;38.022;2022-10-23T11:47:00;8.38;;;5.63;;
75071;SDS011;63651;55.728;38.022;2022-10-23T11:52:02;8.98;;;6.10;;
75071;SDS011;63651;55.728;38.022;2022-10-23T12:02:51;10.38;;;5.68;;
75071;SDS011;63651;55.728;38.022;2022-10-23T12:07:38;9.45;;;6.43;;
75071;SDS011;63651;55.728;38.022;2022-10-23T12:12:40;7.50;;;5.28;;
75071;SDS011;63651;55.728;38.022;2022-10-23T12:17:42;9.38;;;5.57;;
75071;SDS011;63651;55.728;38.022;2022-10-23T12:28:04;7.38;;;5.10;;
75071;SDS011;63651;55.728;38.022;2022-10-23T12:38:14;11.30;;;6.18;;
75071;SDS011;63651;55.728;38.022;2022-10-23T12:43:50;8.85;;;5.68;;
75071;SDS011;63651;55.728;38.022;2022-10-23T12:48:47;8.95;;;5.75;;
75071;SDS011;63651;55.728;38.022;2022-10-23T12:53:48;9.75;;;6.32;;
75071;SDS011;63651;55.728;38.022;2022-10-23T12:58:53;10.55;;;6.72;;
75071;SDS011;63651;55.728;38.022;2022-10-23T13:03:57;10.55;;;6.25;;
75071;SDS011;63651;55.728;38.022;2022-10-23T13:08:59;10.33;;;7.50;;
75071;SDS011;63651;55.728;38.022;2022-10-23T13:14:00;10.15;;;7.13;;
75071;SDS011;63651;55.728;38.022;2022-10-23T13:19:01;9.05;;;6.53;;
75071;SDS011;63651;55.728;38.022;2022-10-23T13:24:02;11.07;;;6.93;;
75071;SDS011;63651;55.728;38.022;2022-10-23T13:29:02;9.32;;;6.25;;
75071;SDS011;63651;55.728;38.022;2022-10-23T13:34:18;10.27;;;5.95;;
75071;SDS011;63651;55.728;38.022;2022-10-23T13:39:22;9.20;;;5.93;;
75071;SDS011;63651;55.728;38.022;2022-10-23T13:44:23;10.73;;;6.63;;
75071;SDS011;63651;55.728;38.022;2022-10-23T13:49:25;10.43;;;6.63;;
75071;SDS011;63651;55.728;38.022;2022-10-23T13:54:27;11.30;;;6.90;;
75071;SDS011;63651;55.728;38.022;2022-10-23T13:59:28;10.60;;;6.65;;
75071;SDS011;63651;55.728;38.022;2022-10-23T14:04:29;10.68;;;6.35;;
75071;SDS011;63651;55.728;38.022;2022-10-23T14:09:29;8.88;;;6.30;;
75071;SDS011;63651;55.728;38.022;2022-10-23T14:14:30;10.30;;;6.57;;
75071;SDS011;63651;55.728;38.022;2022-10-23T14:19:32;9.90;;;6.93;;
75071;SDS011;63651;55.728;38.022;2022-10-23T14:24:33;10.73;;;7.32;;
75071;SDS011;63651;55.728;38.022;2022-10-23T14:29:34;9.10;;;6.20;;
75071;SDS011;63651;55.728;38.022;2022-10-23T14:34:36;11.32;;;6.78;;
75071;SDS011;63651;55.728;38.022;2022-10-23T14:39:38;9.40;;;6.47;;
75071;SDS011;63651;55.728;38.022;2022-10-23T14:44:38;10.52;;;6.15;;
75071;SDS011;63651;55.728;38.022;2022-10-23T14:49:39;10.65;;;6.72;;
75071;SDS011;63651;55.728;38.022;2022-10-23T14:54:42;12.00;;;7.07;;
75071;SDS011;63651;55.728;38.022;2022-10-23T14:59:43;11.50;;;7.43;;
75071;SDS011;63651;55.728;38.022;2022-10-23T15:04:43;12.95;;;7.43;;
75071;SDS011;63651;55.728;38.022;2022-10-23T15:09:44;10.38;;;7.30;;
75071;SDS011;63651;55.728;38.022;2022-10-23T15:14:45;11.82;;;7.18;;
75071;SDS011;63651;55.728;38.022;2022-10-23T15:19:45;11.43;;;6.68;;
75071;SDS011;63651;55.728;38.022;2022-10-23T15:24:46;9.77;;;6.93;;
75071;SDS011;63651;55.728;38.022;2022-10-23T15:29:47;10.00;;;6.80;;
75071;SDS011;63651;55.728;38.022;2022-10-23T15:34:48;10.23;;;6.68;;
75071;SDS011;63651;55.728;38.022;2022-10-23T15:39:49;8.93;;;6.38;;
75071;SDS011;63651;55.728;38.022;2022-10-23T15:44:49;10.02;;;7.20;;
75071;SDS011;63651;55.728;38.022;2022-10-23T15:49:50;13.45;;;7.85;;
75071;SDS011;63651;55.728;38.022;2022-10-23T15:54:51;10.65;;;6.90;;
75071;SDS011;63651;55.728;38.022;2022-10-23T15:59:51;10.77;;;6.95;;
75071;SDS011;63651;55.728;38.022;2022-10-23T16:04:52;10.60;;;7.38;;
75071;SDS011;63651;55.728;38.022;2022-10-23T16:09:54;12.70;;;7.25;;
75071;SDS011;63651;55.728;38.022;2022-10-23T16:14:55;10.70;;;7.28;;
75071;SDS011;63651;55.728;38.022;2022-10-23T16:19:55;10.60;;;7.00;;
75071;SDS011;63651;55.728;38.022;2022-10-23T16:24:56;13.98;;;7.72;;
75071;SDS011;63651;55.728;38.022;2022-10-23T16:29:57;11.20;;;7.75;;
75071;SDS011;63651;55.728;38.022;2022-10-23T16:34:57;11.93;;;8.55;;
75071;SDS011;63651;55.728;38.022;2022-10-23T16:39:58;14.52;;;8.63;;
75071;SDS011;63651;55.728;38.022;2022-10-23T16:45:00;12.73;;;9.00;;
75071;SDS011;63651;55.728;38.022;2022-10-23T16:50:01;12.90;;;9.00;;
75071;SDS011;63651;55.728;38.022;2022-10-23T16:55:01;13.43;;;9.38;;
75071;SDS011;63651;55.728;38.022;2022-10-23T17:00:03;14.07;;;9.05;;
75071;SDS011;63651;55.728;38.022;2022-10-23T17:05:04;11.35;;;7.55;;
75071;SDS011;63651;55.728;38.022;2022-10-23T17:10:05;11.90;;;7.90;;
75071;SDS011;63651;55.728;38.022;2022-10-23T17:15:06;12.27;;;7.68;;
75071;SDS011;63651;55.728;38.022;2022-10-23T17:20:07;10.35;;;7.25;;
75071;SDS011;63651;55.728;38.022;2022-10-23T17:25:08;12.13;;;7.85;;
75071;SDS011;63651;55.728;38.022;2022-10-23T17:30:09;12.07;;;8.38;;
75071;SDS011;63651;55.728;38.022;2022-10-23T17:35:10;10.75;;;8.02;;
75071;SDS011;63651;55.728;38.022;2022-10-23T17:40:11;11.77;;;8.32;;
75071;SDS011;63651;55.728;38.022;2022-10-23T17:45:12;12.00;;;8.55;;
75071;SDS011;63651;55.728;38.022;2022-10-23T17:50:13;11.73;;;8.02;;
75071;SDS011;63651;55.728;38.022;2022-10-23T17:55:14;10.57;;;7.40;;
75071;SDS011;63651;55.728;38.022;2022-10-23T18:00:15;11.65;;;8.80;;
75071;SDS011;63651;55.728;38.022;2022-10-23T18:05:16;10.93;;;7.80;;
75071;SDS011;63651;55.728;38.022;2022-10-23T18:10:17;11.25;;;7.32;;
75071;SDS011;63651;55.728;38.022;2022-10-23T18:15:18;10.15;;;6.82;;
75071;SDS011;63651;55.728;38.022;2022-10-23T18:20:18;8.05;;;6.18;;
75071;SDS011;63651;55.728;38.022;2022-10-23T18:25:19;8.45;;;6.28;;
75071;SDS011;63651;55.728;38.022;2022-10-23T18:30:20;9.25;;;6.38;;
75071;SDS011;63651;55.728;38.022;2022-10-23T18:35:21;9.52;;;6.18;;
75071;SDS011;63651;55.728;38.022;2022-10-23T18:40:21;9.40;;;5.95;;
75071;SDS011;63651;55.728;38.022;2022-10-23T18:45:22;10.02;;;6.38;;
75071;SDS011;63651;55.728;38.022;2022-10-23T18:50:23;8.35;;;6.35;;
75071;SDS011;63651;55.728;38.022;2022-10-23T18:55:23;7.65;;;6.18;;
75071;SDS011;63651;55.728;38.022;2022-10-23T19:00:24;8.18;;;5.68;;
75071;SDS011;63651;55.728;38.022;2022-10-23T19:05:25;8.23;;;5.88;;
75071;SDS011;63651;55.728;38.022;2022-10-23T19:10:26;7.75;;;6.40;;
75071;SDS011;63651;55.728;38.022;2022-10-23T19:15:28;9.13;;;6.95;;
75071;SDS011;63651;55.728;38.022;2022-10-23T19:20:29;10.98;;;7.30;;
75071;SDS011;63651;55.728;38.022;2022-10-23T19:25:30;9.20;;;6.95;;
75071;SDS011;63651;55.728;38.022;2022-10-23T19:30:32;10.90;;;8.15;;
75071;SDS011;63651;55.728;38.022;2022-10-23T19:35:33;9.70;;;7.45;;
75071;SDS011;63651;55.728;38.022;2022-10-23T19:40:34;9.38;;;7.30;;
75071;SDS011;63651;55.728;38.022;2022-10-23T19:45:35;10.48;;;7.55;;
75071;SDS011;63651;55.728;38.022;2022-10-23T19:50:36;10.07;;;7.00;;
75071;SDS011;63651;55.728;38.022;2022-10-23T19:55:37;9.10;;;7.32;;
75071;SDS011;63651;55.728;38.022;2022-10-23T20:00:38;10.70;;;7.93;;
75071;SDS011;63651;55.728;38.022;2022-10-23T20:05:42;10.98;;;7.97;;
75071;SDS011;63651;55.728;38.022;2022-10-23T20:10:43;12.25;;;8.73;;
75071;SDS011;63651;55.728;38.022;2022-10-23T20:15:45;10.43;;;8.50;;
75071;SDS011;63651;55.728;38.022;2022-10-23T20:20:46;12.60;;;8.73;;
75071;SDS011;63651;55.728;38.022;2022-10-23T20:25:47;13.45;;;8.82;;
75071;SDS011;63651;55.728;38.022;2022-10-23T20:30:48;11.15;;;8.38;;
75071;SDS011;63651;55.728;38.022;2022-10-23T20:35:48;11.48;;;8.55;;
75071;SDS011;63651;55.728;38.022;2022-10-23T20:40:49;11.25;;;8.45;;
75071;SDS011;63651;55.728;38.022;2022-10-23T20:45:49;9.45;;;7.60;;
75071;SDS011;63651;55.728;38.022;2022-10-23T20:50:50;12.95;;;7.95;;
75071;SDS011;63651;55.728;38.022;2022-10-23T20:55:51;9.48;;;7.85;;
75071;SDS011;63651;55.728;38.022;2022-10-23T21:00:52;10.80;;;7.40;;
75071;SDS011;63651;55.728;38.022;2022-10-23T21:05:52;12.55;;;7.80;;
75071;SDS011;63651;55.728;38.022;2022-10-23T21:10:54;10.02;;;7.15;;
75071;SDS011;63651;55.728;38.022;2022-10-23T21:15:54;11.75;;;7.22;;
75071;SDS011;63651;55.728;38.022;2022-10-23T21:20:55;8.88;;;6.93;;
75071;SDS011;63651;55.728;38.022;2022-10-23T21:25:56;9.63;;;6.57;;
75071;SDS011;63651;55.728;38.022;2022-10-23T21:31:03;8.05;;;5.88;;
75071;SDS011;63651;55.728;38.022;2022-10-23T21:36:04;6.70;;;5.30;;
75071;SDS011;63651;55.728;38.022;2022-10-23T21:41:06;5.97;;;5.05;;
75071;SDS011;63651;55.728;38.022;2022-10-23T21:46:11;7.97;;;4.60;;
75071;SDS011;63651;55.728;38.022;2022-10-23T21:56:47;7.05;;;4.57;;
75071;SDS011;63651;55.728;38.022;2022-10-23T22:01:48;7.05;;;4.47;;
75071;SDS011;63651;55.728;38.022;2022-10-23T22:06:49;9.73;;;5.60;;
75071;SDS011;63651;55.728;38.022;2022-10-23T22:11:50;11.10;;;6.35;;
75071;SDS011;63651;55.728;38.022;2022-10-23T22:16:52;10.75;;;6.13;;
75071;SDS011;63651;55.728;38.022;2022-10-23T22:21:52;8.30;;;5.32;;
75071;SDS011;63651;55.728;38.022;2022-10-23T22:26:54;7.47;;;5.10;;
75071;SDS011;63651;55.728;38.022;2022-10-23T22:31:55;8.15;;;5.13;;
75071;SDS011;63651;55.728;38.022;2022-10-23T22:36:56;7.70;;;4.50;;
75071;SDS011;63651;55.728;38.022;2022-10-23T22:41:57;7.97;;;5.03;;
75071;SDS011;63651;55.728;38.022;2022-10-23T22:46:58;8.13;;;4.95;;
75071;SDS011;63651;55.728;38.022;2022-10-23T22:51:58;8.90;;;5.82;;
75071;SDS011;63651;55.728;38.022;2022-10-23T22:56:59;11.10;;;6.18;;
75071;SDS011;63651;55.728;38.022;2022-10-23T23:02:00;10.45;;;6.55;;
75071;SDS011;63651;55.728;38.022;2022-10-23T23:07:00;11.45;;;6.57;;
75071;SDS011;63651;55.728;38.022;2022-10-23T23:12:01;10.55;;;6.50;;
75071;SDS011;63651;55.728;38.022;2022-10-23T23:17:02;10.63;;;5.80;;
75071;SDS011;63651;55.728;38.022;2022-10-23T23:22:03;9.73;;;7.07;;
75071;SDS011;63651;55.728;38.022;2022-10-23T23:27:04;10.75;;;5.85;;
75071;SDS011;63651;55.728;38.022;2022-10-23T23:32:04;9.88;;;6.22;;
75071;SDS011;63651;55.728;38.022;2022-10-23T23:37:06;9.43;;;6.15;;
75071;SDS011;63651;55.728;38.022;2022-10-23T23:42:06;8.52;;;6.75;;
75071;SDS011;63651;55.728;38.022;2022-10-23T23:47:07;9.40;;;6.45;;
75071;SDS011;63651;55.728;38.022;2022-10-23T23:52:08;7.57;;;5.78;;
75071;SDS011;63651;55.728;38.022;2022-10-23T23:57:09;8.77;;;6.00;;
